ADDS METAR Data INFO
IDs: Format: Raw Decoded Include TAF

Data at: 2005 UTC 19 Oct 2017

KDAN 191953Z AUTO 00000KT 10SM CLR 23/06 A3022 RMK AO2 SLP226 T02330061
KDAN 191853Z AUTO 00000KT 10SM CLR 22/07 A3023 RMK AO2 SLP231 T02220072
KDAN 191753Z AUTO 23003KT 10SM CLR 21/07 A3026 RMK AO2 SLP240 T02110067 10217 20017 58021
KDAN 191653Z AUTO VRB03KT 10SM CLR 21/06 A3028 RMK AO2 SLP249 T02060061
KDAN 191553Z AUTO 22004KT 10SM CLR 18/08 A3031 RMK AO2 SLP257 T01780078
KDAN 191453Z AUTO VRB04KT 10SM CLR 15/09 A3032 RMK AO2 SLP263 T01500089 50004
KDAN 191353Z AUTO 00000KT 10SM CLR 11/08 A3033 RMK AO2 SLP268 T01060083
KDAN 191253Z AUTO 24003KT 10SM CLR 06/06 A3032 RMK AO2 SLP264 T00610061
KDAN 191153Z AUTO 00000KT 8SM CLR 02/02 A3031 RMK AO2 SLP261 T00220017 10050 20017 51005
KDAN 191053Z AUTO 23003KT 8SM FEW001 02/ A3031 RMK AO2 SLP260 T0022 $
KDAN 191031Z AUTO 00000KT 5SM HZ FEW001 02/ A3031 RMK AO2 T0022 $
KDAN 190953Z AUTO 00000KT 10SM CLR 02/ A3030 RMK AO2 SLP256 T0022 $
KDAN 190853Z AUTO 00000KT 10SM CLR 03/ A3030 RMK AO2 SLP253 T0033 56008 $
KDAN 190753Z AUTO 24003KT 10SM CLR 04/ A3031 RMK AO2 SLP256 T0044 $
KDAN 190653Z AUTO 00000KT 10SM CLR 05/ A3031 RMK AO2 SLP257 T0050 $
KDAN 190553Z AUTO 00000KT 10SM CLR 04/ A3032 RMK AO2 SLP262 T0039 10100 20039 58005 $
KDAN 190453Z AUTO 00000KT 10SM CLR 04/ A3032 RMK AO2 SLP263 T0044 402000011 $
KDAN 190353Z AUTO 00000KT 10SM CLR 06/ A3033 RMK AO2 SLP266 T0056 $
KDAN 190253Z AUTO 00000KT 10SM CLR 06/ A3033 RMK AO2 SLP267 T0061 53002 $
KDAN 190153Z AUTO 00000KT 10SM CLR 07/ A3033 RMK AO2 SLP267 T0067 $
KDAN 190053Z AUTO 00000KT 10SM CLR 08/ A3033 RMK AO2 SLP267 T0078 $
KDAN 182353Z AUTO 07003KT 10SM CLR 09/07 A3033 RMK AO2 SLP267 T00940067 10200 20089 53002
KDAN 182253Z AUTO 00000KT 10SM CLR 11/07 A3032 RMK AO2 SLP263 T01110067
KDAN 182153Z AUTO 00000KT 10SM CLR 19/04 A3032 RMK AO2 SLP262 T01890044
KDAN 182053Z AUTO 09003KT 10SM CLR 19/04 A3032 RMK AO2 SLP263 T01940039 56016
KDAN 181953Z AUTO 00000KT 10SM CLR 19/03 A3033 RMK AO2 SLP267 T01940033
KDAN 181853Z AUTO VRB03KT 10SM CLR 19/04 A3035 RMK AO2 SLP272 T01890039
KDAN 181753Z AUTO VRB04KT 10SM CLR 18/03 A3037 RMK AO2 SLP279 T01830033 10183 20017 58017
KDAN 181653Z AUTO 07004KT 10SM CLR 18/06 A3040 RMK AO2 SLP289 T01780056
KDAN 181553Z AUTO 00000KT 10SM CLR 16/05 A3042 RMK AO2 SLP297 T01610050
KDAN 181453Z AUTO 00000KT 10SM CLR 13/07 A3042 RMK AO2 SLP297 T01330067 51014
KDAN 181353Z AUTO 00000KT 10SM CLR 09/07 A3042 RMK AO2 SLP296 T00940072
KDAN 181253Z AUTO 00000KT 10SM CLR 05/05 A3040 RMK AO2 SLP292 T00500050
KDAN 181153Z AUTO 00000KT 10SM CLR 02/02 A3038 RMK AO2 SLP285 T00170017 10039 20011 52013
KDAN 181053Z AUTO 00000KT 10SM CLR 02/02 A3037 RMK AO2 SLP280 T00170017
KDAN 180953Z AUTO 00000KT 10SM CLR 02/02 A3036 RMK AO2 SLP274 T00220017
KDAN 180853Z AUTO 00000KT 10SM CLR 03/02 A3034 RMK AO2 SLP269 T00280022 50000